createdAt,value
2023-04-01T00:01:08.953Z,9.80
2023-04-01T00:03:38.300Z,9.90
2023-04-01T00:06:06.769Z,9.90
2023-04-01T00:08:36.333Z,9.90
2023-04-01T00:11:04.665Z,9.90
2023-04-01T00:13:33.411Z,9.90
2023-04-01T00:16:03.415Z,9.80
2023-04-01T00:18:32.665Z,9.80
2023-04-01T00:21:00.957Z,9.80
2023-04-01T00:23:29.218Z,9.80
2023-04-01T00:26:00.981Z,9.90
2023-04-01T00:28:29.425Z,9.80
2023-04-01T00:30:57.907Z,9.90
2023-04-01T00:33:26.360Z,9.90
2023-04-01T00:35:54.504Z,9.90
2023-04-01T00:38:22.823Z,9.90
2023-04-01T00:40:52.056Z,9.90
2023-04-01T00:43:22.939Z,9.90
2023-04-01T00:45:51.674Z,9.90
2023-04-01T00:48:22.890Z,9.80
2023-04-01T00:50:54.236Z,9.80
2023-04-01T00:53:23.346Z,9.80
2023-04-01T00:55:58.193Z,9.70
2023-04-01T00:58:29.681Z,9.70
2023-04-01T01:01:00.690Z,9.60
2023-04-01T01:03:29.230Z,9.60
2023-04-01T01:06:24.726Z,9.60
2023-04-01T01:09:08.508Z,9.50
2023-04-01T01:11:43.839Z,9.50
2023-04-01T01:14:25.019Z,9.50
2023-04-01T01:17:00.946Z,9.50
2023-04-01T01:19:50.945Z,9.50
2023-04-01T01:22:47.914Z,9.40
2023-04-01T01:25:27.674Z,9.30
2023-04-01T01:28:02.380Z,9.30
2023-04-01T01:30:46.213Z,9.30
2023-04-01T01:33:41.686Z,9.30
2023-04-01T01:36:16.002Z,9.30
2023-04-01T01:38:44.596Z,9.30
2023-04-01T01:41:16.005Z,9.30
2023-04-01T01:43:48.119Z,9.20
2023-04-01T01:46:22.057Z,9.20
2023-04-01T01:48:51.815Z,9.20
2023-04-01T01:51:23.386Z,9.20
2023-04-01T01:53:51.613Z,9.20
2023-04-01T01:56:25.539Z,9.20
2023-04-01T01:58:57.325Z,9.20
2023-04-01T02:01:28.094Z,9.20
2023-04-01T02:04:00.675Z,9.30
2023-04-01T02:06:34.503Z,9.20
2023-04-01T02:09:05.850Z,9.20
2023-04-01T02:11:38.018Z,9.20
2023-04-01T02:14:09.892Z,9.20
2023-04-01T02:16:42.621Z,9.10
2023-04-01T02:19:12.653Z,9.20
2023-04-01T02:21:44.536Z,9.20
2023-04-01T02:24:16.096Z,9.20
2023-04-01T02:26:46.680Z,9.20
2023-04-01T02:29:15.420Z,9.20
2023-04-01T02:31:44.668Z,9.20
2023-04-01T02:34:13.120Z,9.30
2023-04-01T02:36:43.020Z,9.30
2023-04-01T02:39:11.319Z,9.30
2023-04-01T02:41:42.977Z,9.30
2023-04-01T02:44:12.392Z,9.30
2023-04-01T02:46:40.681Z,9.30
2023-04-01T02:49:09.510Z,9.30
2023-04-01T02:51:37.650Z,9.30
2023-04-01T02:54:07.393Z,9.40
2023-04-01T02:56:35.907Z,9.40
2023-04-01T02:59:04.141Z,9.40
2023-04-01T03:01:32.667Z,9.50
2023-04-01T03:04:00.879Z,9.50
2023-04-01T03:06:29.298Z,9.60
2023-04-01T03:08:57.782Z,9.60
2023-04-01T03:11:27.853Z,9.60
2023-04-01T03:13:55.943Z,9.60
2023-04-01T03:16:24.311Z,9.70
2023-04-01T03:18:53.741Z,9.70
2023-04-01T03:21:24.017Z,9.70
2023-04-01T03:23:52.645Z,9.70
2023-04-01T03:26:20.975Z,9.70
2023-04-01T03:28:50.473Z,9.70
2023-04-01T03:31:19.051Z,9.70
2023-04-01T03:33:53.459Z,9.70
2023-04-01T03:36:22.002Z,9.70
2023-04-01T03:38:50.336Z,9.70
2023-04-01T03:41:25.205Z,9.70
2023-04-01T03:43:55.961Z,9.70
2023-04-01T03:46:24.083Z,9.80
2023-04-01T03:48:52.274Z,9.80
2023-04-01T03:51:21.081Z,9.80
2023-04-01T03:53:49.478Z,9.80
2023-04-01T03:56:18.459Z,9.70
2023-04-01T03:58:46.745Z,9.70
2023-04-01T04:01:19.316Z,9.70
2023-04-01T04:03:50.237Z,9.70
2023-04-01T04:06:19.511Z,9.70
2023-04-01T04:08:48.688Z,9.70
2023-04-01T04:11:18.251Z,9.70
2023-04-01T04:13:46.532Z,9.70
2023-04-01T04:16:14.745Z,9.70
2023-04-01T04:18:48.998Z,9.60
2023-04-01T04:21:17.510Z,9.70
2023-04-01T04:23:45.752Z,9.60
2023-04-01T04:26:17.476Z,9.60
2023-04-01T04:28:51.812Z,9.60
2023-04-01T04:31:22.900Z,9.60
2023-04-01T04:33:54.192Z,9.60
2023-04-01T04:36:23.642Z,9.60
2023-04-01T04:38:53.465Z,9.60
2023-04-01T04:41:23.101Z,9.60
2023-04-01T04:43:54.090Z,9.60
2023-04-01T04:46:23.568Z,9.60
2023-04-01T04:48:58.576Z,9.60
2023-04-01T04:51:27.764Z,9.60
2023-04-01T04:53:56.178Z,9.70
2023-04-01T04:56:35.050Z,9.70
2023-04-01T04:59:08.391Z,9.60
2023-04-01T05:01:49.018Z,9.60
2023-04-01T05:04:18.749Z,9.60
2023-04-01T05:06:46.898Z,9.50
2023-04-01T05:09:16.628Z,9.50
2023-04-01T05:11:44.903Z,9.50
2023-04-01T05:14:15.526Z,9.50
2023-04-01T05:16:46.417Z,9.50
2023-04-01T05:19:14.569Z,9.50
2023-04-01T05:21:44.096Z,9.50
2023-04-01T05:24:12.374Z,9.40
2023-04-01T05:26:41.483Z,9.40
2023-04-01T05:29:09.736Z,9.50
2023-04-01T05:31:37.963Z,9.50
2023-04-01T05:34:07.123Z,9.50
2023-04-01T05:36:36.675Z,9.50
2023-04-01T05:39:06.766Z,9.40
2023-04-01T05:41:37.214Z,9.40
2023-04-01T05:44:06.027Z,9.40
2023-04-01T05:46:54.064Z,9.40
2023-04-01T05:49:26.280Z,9.40
2023-04-01T05:51:55.927Z,9.40
2023-04-01T05:54:25.759Z,9.40
2023-04-01T05:56:54.032Z,9.40
2023-04-01T05:59:22.668Z,9.40
2023-04-01T06:01:50.906Z,9.40
2023-04-01T06:04:20.578Z,9.40
2023-04-01T06:06:48.747Z,9.50
2023-04-01T06:09:19.350Z,9.50
2023-04-01T06:12:10.622Z,9.50
2023-04-01T06:15:12.654Z,9.60
2023-04-01T06:18:01.525Z,9.50
2023-04-01T06:20:39.841Z,9.60
2023-04-01T06:23:22.040Z,9.70
2023-04-01T06:26:01.274Z,9.70
2023-04-01T06:29:01.040Z,9.70
2023-04-01T06:31:48.966Z,9.70
2023-04-01T06:34:34.318Z,9.70
2023-04-01T06:37:13.057Z,9.70
2023-04-01T06:40:21.283Z,9.70
2023-04-01T06:43:03.213Z,9.80
2023-04-01T06:45:58.039Z,9.70
2023-04-01T06:49:08.774Z,9.70
2023-04-01T06:51:55.189Z,9.70
2023-04-01T06:54:53.904Z,9.70
2023-04-01T06:58:00.489Z,9.60
2023-04-01T07:00:33.844Z,9.60
2023-04-01T07:03:15.321Z,9.60
2023-04-01T07:05:44.996Z,9.60
2023-04-01T07:08:19.715Z,9.60
2023-04-01T07:10:52.757Z,9.60
2023-04-01T07:13:50.345Z,9.60
2023-04-01T07:16:26.298Z,9.60
2023-04-01T07:19:03.173Z,9.60
2023-04-01T07:21:49.328Z,9.60
2023-04-01T07:24:29.621Z,9.60
2023-04-01T07:27:11.835Z,9.60
2023-04-01T07:29:41.752Z,9.60
2023-04-01T07:32:22.984Z,9.50
2023-04-01T07:35:09.930Z,9.60
2023-04-01T07:37:46.396Z,9.60
2023-04-01T07:40:24.483Z,9.60
2023-04-01T07:43:09.858Z,9.60
2023-04-01T07:45:59.156Z,9.60
2023-04-01T07:48:35.360Z,9.70
2023-04-01T07:51:14.610Z,9.70
2023-04-01T07:53:49.569Z,9.70
2023-04-01T07:56:25.712Z,9.70
2023-04-01T07:59:06.035Z,9.60
2023-04-01T08:02:05.318Z,9.50
2023-04-01T08:04:46.564Z,9.50
2023-04-01T08:07:20.008Z,9.50
2023-04-01T08:10:14.054Z,9.40
2023-04-01T08:13:14.425Z,9.40
2023-04-01T08:16:13.881Z,9.30
2023-04-01T08:19:02.333Z,9.30
2023-04-01T08:21:34.668Z,9.30
2023-04-01T08:24:19.713Z,9.30
2023-04-01T08:26:55.219Z,9.20
2023-04-01T08:29:27.684Z,9.20
2023-04-01T08:32:00.209Z,9.20
2023-04-01T08:34:34.529Z,9.10
2023-04-01T08:37:08.703Z,9.10
2023-04-01T08:39:42.375Z,9.10
2023-04-01T08:42:42.941Z,9.10
2023-04-01T08:45:40.418Z,9.10
2023-04-01T08:48:34.202Z,9.10
2023-04-01T08:51:26.731Z,9.10
2023-04-01T08:54:16.717Z,9.00
2023-04-01T08:56:57.378Z,9.20
2023-04-01T09:00:04.332Z,9.20
2023-04-01T09:03:32.428Z,9.20
2023-04-01T09:06:29.145Z,9.30
2023-04-01T09:09:23.394Z,9.30
2023-04-01T09:12:45.364Z,9.40
2023-04-01T09:15:49.212Z,9.40
2023-04-01T09:18:42.143Z,9.40
2023-04-01T09:21:26.811Z,9.40
2023-04-01T09:24:33.354Z,9.40
2023-04-01T09:27:07.134Z,9.40
2023-04-01T09:30:14.100Z,9.30
2023-04-01T09:32:55.422Z,9.30
2023-04-01T09:35:40.934Z,9.40
2023-04-01T09:38:26.160Z,9.40
2023-04-01T09:40:59.669Z,9.40
2023-04-01T09:43:55.007Z,9.40
2023-04-01T09:46:34.748Z,9.40
2023-04-01T09:49:38.039Z,9.50
2023-04-01T09:52:20.149Z,9.50
2023-04-01T09:55:01.918Z,9.40
2023-04-01T09:58:09.993Z,9.50
2023-04-01T10:01:19.751Z,9.50
2023-04-01T10:04:27.173Z,9.50
2023-04-01T10:07:39.761Z,9.50
2023-04-01T10:10:53.444Z,9.50
2023-04-01T10:13:57.984Z,9.50
2023-04-01T10:17:03.935Z,9.50
2023-04-01T10:20:09.837Z,9.50
2023-04-01T10:23:00.651Z,9.40
2023-04-01T10:25:51.458Z,9.60
2023-04-01T10:29:04.927Z,9.50
2023-04-01T10:32:20.538Z,9.50
2023-04-01T10:35:28.678Z,9.60
2023-04-01T10:38:38.153Z,9.50
2023-04-01T10:41:44.798Z,9.50
2023-04-01T10:45:01.843Z,9.50
2023-04-01T10:48:12.862Z,9.60
2023-04-01T10:51:07.405Z,9.60
2023-04-01T10:54:11.647Z,9.60
2023-04-01T10:57:26.865Z,9.70
2023-04-01T11:00:42.742Z,9.60
2023-04-01T11:04:21.615Z,9.70
2023-04-01T11:08:02.823Z,9.60
2023-04-01T11:11:15.892Z,9.60
2023-04-01T11:14:18.965Z,9.70
2023-04-01T11:17:33.651Z,9.70
2023-04-01T11:20:47.432Z,9.70
2023-04-01T11:23:30.448Z,9.70
2023-04-01T11:26:07.075Z,9.70
2023-04-01T11:29:56.712Z,9.70
2023-04-01T11:32:56.549Z,9.90
2023-04-01T11:35:38.181Z,9.90
2023-04-01T11:38:20.064Z,9.90
2023-04-01T11:40:56.523Z,9.90
2023-04-01T11:44:05.552Z,9.80
2023-04-01T11:47:07.493Z,9.70
2023-04-01T11:49:46.996Z,9.80
2023-04-01T11:52:37.050Z,9.80
2023-04-01T11:55:18.813Z,9.80
2023-04-01T11:58:00.621Z,9.80
2023-04-01T12:00:51.510Z,9.90
2023-04-01T12:04:09.575Z,9.90
2023-04-01T12:06:46.109Z,9.90
2023-04-01T12:09:24.940Z,9.90
2023-04-01T12:12:06.387Z,9.90
2023-04-01T12:14:44.302Z,10.00
2023-04-01T12:17:28.426Z,9.90
2023-04-01T12:20:03.610Z,10.00
2023-04-01T12:22:47.331Z,10.00
2023-04-01T12:25:37.461Z,10.00
2023-04-01T12:28:17.634Z,10.00
2023-04-01T12:30:55.087Z,10.00
2023-04-01T12:33:46.434Z,10.00
2023-04-01T12:36:44.603Z,10.00
2023-04-01T12:39:34.663Z,10.00
2023-04-01T12:42:13.217Z,10.00
2023-04-01T12:44:54.061Z,10.00
2023-04-01T12:48:04.523Z,10.10
2023-04-01T12:50:59.349Z,10.10
2023-04-01T12:53:42.450Z,10.00
2023-04-01T12:56:16.360Z,10.00
2023-04-01T12:59:08.685Z,10.00
2023-04-01T13:02:03.273Z,10.00
2023-04-01T13:04:58.305Z,10.10
2023-04-01T13:07:38.384Z,10.00
2023-04-01T13:10:15.573Z,10.00
2023-04-01T13:13:17.616Z,10.00
2023-04-01T13:15:48.986Z,9.90
2023-04-01T13:18:30.086Z,10.00
2023-04-01T13:21:08.098Z,10.00
2023-04-01T13:23:49.006Z,10.00
2023-04-01T13:26:24.710Z,10.10
2023-04-01T13:28:58.654Z,10.00
2023-04-01T13:31:36.209Z,10.00
2023-04-01T13:34:19.426Z,10.10
2023-04-01T13:37:01.654Z,10.30
2023-04-01T13:39:40.844Z,10.20
2023-04-01T13:42:21.096Z,10.10
2023-04-01T13:44:53.680Z,10.10
2023-04-01T13:47:53.192Z,10.10
2023-04-01T13:50:40.891Z,10.20
2023-04-01T13:53:26.516Z,10.10
2023-04-01T13:56:14.775Z,10.20
2023-04-01T13:59:02.482Z,10.20
2023-04-01T14:01:41.520Z,10.20
2023-04-01T14:04:34.273Z,10.30
2023-04-01T14:07:14.473Z,10.40
2023-04-01T14:10:04.040Z,10.40
2023-04-01T14:12:38.475Z,10.40
2023-04-01T14:15:27.330Z,10.40
2023-04-01T14:18:12.262Z,10.40
2023-04-01T14:20:43.958Z,10.40
2023-04-01T14:23:42.426Z,10.50
2023-04-01T14:26:47.713Z,10.40
2023-04-01T14:29:26.510Z,10.50
2023-04-01T14:32:04.460Z,10.50
2023-04-01T14:34:50.905Z,10.50
2023-04-01T14:37:34.314Z,10.50
2023-04-01T14:40:24.091Z,10.50
2023-04-01T14:43:21.019Z,10.60
2023-04-01T14:46:08.935Z,10.50
2023-04-01T14:48:39.811Z,10.60
2023-04-01T14:51:17.648Z,10.60
2023-04-01T14:53:54.403Z,10.60
2023-04-01T14:56:39.341Z,10.70
2023-04-01T14:59:12.710Z,10.80
2023-04-01T15:01:49.428Z,10.70
2023-04-01T15:04:52.278Z,10.80
2023-04-01T15:07:47.258Z,10.80
2023-04-01T15:10:32.556Z,10.80
2023-04-01T15:13:14.038Z,10.90
2023-04-01T15:15:57.368Z,10.90
2023-04-01T15:18:37.028Z,11.00
2023-04-01T15:21:20.272Z,11.00
2023-04-01T15:24:02.379Z,11.00
2023-04-01T15:26:51.605Z,11.00
2023-04-01T15:29:38.740Z,11.00
2023-04-01T15:32:18.873Z,11.00
2023-04-01T15:34:54.827Z,11.00
2023-04-01T15:37:33.346Z,11.00
2023-04-01T15:40:10.070Z,11.00
2023-04-01T15:42:53.712Z,11.00
2023-04-01T15:45:36.416Z,11.00
2023-04-01T15:48:16.318Z,11.00
2023-04-01T15:51:01.788Z,11.00
2023-04-01T15:53:46.389Z,11.00
2023-04-01T15:56:47.141Z,11.10
2023-04-01T15:59:25.008Z,11.20
2023-04-01T16:02:01.506Z,11.20
2023-04-01T16:04:48.417Z,11.20
2023-04-01T16:07:28.858Z,11.20
2023-04-01T16:10:11.433Z,11.20
2023-04-01T16:12:54.827Z,11.20
2023-04-01T16:15:30.378Z,11.30
2023-04-01T16:18:16.534Z,11.20
2023-04-01T16:20:53.353Z,11.10
2023-04-01T16:23:28.537Z,11.10
2023-04-01T16:26:05.752Z,11.10
2023-04-01T16:28:38.801Z,11.00
2023-04-01T16:31:12.159Z,11.00
2023-04-01T16:33:50.826Z,11.10
2023-04-01T16:36:30.161Z,11.10
2023-04-01T16:39:13.501Z,11.10
2023-04-01T16:41:49.057Z,11.10
2023-04-01T16:44:22.584Z,11.20
2023-04-01T16:46:54.243Z,11.20
2023-04-01T16:49:34.977Z,11.20
2023-04-01T16:52:18.781Z,11.10
2023-04-01T16:54:53.907Z,11.10
2023-04-01T16:57:27.286Z,11.10
2023-04-01T17:00:01.827Z,11.10
2023-04-01T17:02:35.516Z,11.00
2023-04-01T17:05:06.786Z,11.00
2023-04-01T17:07:48.992Z,11.00
2023-04-01T17:10:43.709Z,11.00
2023-04-01T17:13:35.243Z,11.00
2023-04-01T17:16:17.956Z,11.00
2023-04-01T17:18:54.413Z,10.90
2023-04-01T17:21:29.972Z,11.00
2023-04-01T17:24:13.188Z,10.90
2023-04-01T17:26:47.412Z,10.90
2023-04-01T17:29:26.296Z,10.90
2023-04-01T17:32:05.384Z,10.90
2023-04-01T17:34:53.460Z,10.80
2023-04-01T17:37:41.031Z,10.70
2023-04-01T17:40:27.089Z,10.50
2023-04-01T17:43:03.911Z,10.30
2023-04-01T17:45:38.968Z,10.40
2023-04-01T17:48:20.739Z,10.50
2023-04-01T17:51:00.684Z,10.80
2023-04-01T17:53:38.441Z,10.80
2023-04-01T17:56:16.545Z,10.90
2023-04-01T17:58:48.633Z,10.90
2023-04-01T18:01:42.275Z,10.80
2023-04-01T18:04:24.416Z,10.80
2023-04-01T18:07:08.476Z,10.70
2023-04-01T18:09:48.720Z,10.70
2023-04-01T18:12:27.923Z,10.60
2023-04-01T18:15:10.328Z,10.50
2023-04-01T18:17:50.931Z,10.60
2023-04-01T18:20:37.309Z,10.70
2023-04-01T18:23:13.433Z,10.70
2023-04-01T18:25:45.175Z,10.70
2023-04-01T18:28:28.624Z,10.60
2023-04-01T18:31:02.180Z,10.60
2023-04-01T18:33:38.228Z,10.60
2023-04-01T18:36:17.784Z,10.60
2023-04-01T18:38:52.500Z,10.60
2023-04-01T18:41:28.323Z,10.70
2023-04-01T18:44:06.819Z,10.70
2023-04-01T18:46:43.218Z,10.60
2023-04-01T18:49:23.356Z,10.70
2023-04-01T18:51:56.900Z,10.60
2023-04-01T18:54:29.247Z,10.60
2023-04-01T18:57:06.074Z,10.60
2023-04-01T18:59:41.360Z,10.60
2023-04-01T19:02:19.072Z,10.60
2023-04-01T19:04:54.351Z,10.60
2023-04-01T19:07:43.189Z,10.50
2023-04-01T19:10:22.745Z,10.50
2023-04-01T19:13:14.070Z,10.50
2023-04-01T19:15:48.513Z,10.60
2023-04-01T19:18:38.930Z,10.60
2023-04-01T19:21:12.949Z,10.60
2023-04-01T19:24:19.676Z,10.70
2023-04-01T19:26:50.749Z,10.60
2023-04-01T19:29:37.530Z,10.50
2023-04-01T19:32:16.915Z,10.50
2023-04-01T19:34:55.920Z,10.40
2023-04-01T19:37:36.713Z,9.80
2023-04-01T19:40:20.035Z,9.50
2023-04-01T19:42:58.270Z,9.30
2023-04-01T19:45:37.344Z,9.00
2023-04-01T19:48:16.575Z,9.00
2023-04-01T19:50:53.141Z,9.20
2023-04-01T19:53:26.844Z,9.20
2023-04-01T19:56:03.743Z,9.40
2023-04-01T19:58:40.682Z,9.60
2023-04-01T20:01:12.905Z,9.70
2023-04-01T20:03:48.852Z,9.80
2023-04-01T20:06:22.954Z,9.90
2023-04-01T20:09:03.465Z,9.70
2023-04-01T20:11:41.494Z,9.80
2023-04-01T20:14:20.419Z,9.90
2023-04-01T20:16:57.996Z,9.90
2023-04-01T20:19:35.138Z,9.80
2023-04-01T20:22:06.400Z,9.70
2023-04-01T20:24:39.082Z,9.50
2023-04-01T20:27:16.856Z,9.50
2023-04-01T20:30:02.391Z,9.50
2023-04-01T20:32:59.873Z,9.50
2023-04-01T20:35:51.162Z,9.60
2023-04-01T20:38:33.045Z,9.60
2023-04-01T20:41:08.135Z,9.60
2023-04-01T20:43:54.943Z,9.50
2023-04-01T20:46:28.648Z,9.40
2023-04-01T20:49:22.268Z,9.50
2023-04-01T20:51:56.855Z,9.50
2023-04-01T20:54:42.450Z,9.40
2023-04-01T20:57:17.059Z,9.40
2023-04-01T21:00:05.876Z,9.40
2023-04-01T21:03:05.011Z,9.40
2023-04-01T21:06:01.869Z,9.30
2023-04-01T21:08:42.464Z,9.20
2023-04-01T21:11:20.472Z,9.20
2023-04-01T21:14:03.883Z,9.20
2023-04-01T21:16:49.638Z,9.20
2023-04-01T21:19:41.831Z,9.20
2023-04-01T21:22:33.147Z,9.10
2023-04-01T21:25:29.137Z,9.10
2023-04-01T21:28:22.624Z,9.10
2023-04-01T21:31:22.453Z,9.10
2023-04-01T21:34:35.114Z,9.00
2023-04-01T21:37:20.897Z,9.00
2023-04-01T21:40:02.844Z,9.10
2023-04-01T21:42:42.674Z,9.00
2023-04-01T21:45:27.313Z,9.00
2023-04-01T21:48:29.191Z,9.00
2023-04-01T21:51:32.034Z,9.00
2023-04-01T21:54:28.872Z,9.00
2023-04-01T21:57:36.072Z,8.90
2023-04-01T22:00:19.380Z,8.90
2023-04-01T22:03:26.877Z,8.90
2023-04-01T22:06:15.437Z,8.90
2023-04-01T22:08:55.323Z,8.90
2023-04-01T22:11:36.772Z,8.90
2023-04-01T22:14:10.830Z,8.90
2023-04-01T22:16:47.488Z,8.80
2023-04-01T22:19:23.142Z,8.80
2023-04-01T22:22:02.617Z,8.80
2023-04-01T22:24:41.049Z,8.80
2023-04-01T22:27:18.431Z,8.80
2023-04-01T22:29:56.040Z,8.80
2023-04-01T22:32:29.055Z,8.80
2023-04-01T22:35:05.474Z,8.80
2023-04-01T22:37:39.522Z,8.80
2023-04-01T22:40:24.629Z,8.80
2023-04-01T22:42:58.389Z,8.90
2023-04-01T22:45:43.589Z,8.80
2023-04-01T22:48:20.417Z,8.80
2023-04-01T22:50:55.425Z,8.80
2023-04-01T22:53:34.743Z,8.80
2023-04-01T22:56:08.605Z,8.80
2023-04-01T22:58:40.941Z,8.70
2023-04-01T23:01:14.772Z,8.70
2023-04-01T23:03:46.231Z,8.70
2023-04-01T23:06:19.728Z,8.80
2023-04-01T23:09:08.951Z,8.80
2023-04-01T23:11:44.858Z,8.80
2023-04-01T23:14:45.243Z,8.80
2023-04-01T23:17:36.163Z,8.80
2023-04-01T23:20:19.942Z,8.80
2023-04-01T23:22:58.725Z,8.80
2023-04-01T23:25:35.307Z,8.90
2023-04-01T23:28:21.009Z,8.90
2023-04-01T23:30:52.436Z,8.90
2023-04-01T23:33:28.954Z,8.90
2023-04-01T23:36:06.188Z,8.90
2023-04-01T23:38:37.023Z,8.90
2023-04-01T23:41:06.673Z,8.90
2023-04-01T23:43:38.952Z,8.90
2023-04-01T23:46:09.684Z,8.90
2023-04-01T23:48:40.985Z,8.90
2023-04-01T23:51:18.712Z,8.90
2023-04-01T23:53:49.432Z,9.00
2023-04-01T23:56:19.698Z,9.00
2023-04-01T23:58:53.384Z,9.00
